Lake City, CO (81235)

9:41 PM MDT on July 30, 2015 (GMT -0600)
Lake City Heights | | Change Station
CLOSE
Current Station
Personal Weather Station
Location: Lake City, CO
Elevation: 8858 ft
Nearby Weather Stations

Elev 8858 ft 38.02 °N, 107.31 °W | Updated 2 seconds ago

Mostly Cloudy
Mostly Cloudy
66.2 °F
Feels Like 66.2 °F
N
0.0
Wind Variable Wind from North
Gusts 0.0 mph

Today
High -- | Low -- °F
--% Chance of Precip.
Yesterday
High -- | Low -- °F
Precip. -- in
6:10 AM 8:20 PM
Full, 100% visible
Pressure 30.57 in
Visibility 10.0 miles
Clouds Mostly Cloudy 11000 ft
Dew Point 17 °F
Humidity 15%
Rainfall 0.00 in
Snow Depth Not available.
UV 0 out of 12
Pollen 6.00 out of 12
Air Quality Not available.
Flu Activity Not available.
METAR KTEX 310335Z AUTO 13004KT 10SM BKN110 18/00 A3057 RMK AO2 T01790001

More Conditions Fewer Conditions

Pressure 30.57 in
Visibility 10.0 miles
Clouds Mostly Cloudy 11000 ft
Dew Point 17 °F
Humidity 15%
Rainfall 0.00 in
Snow Depth Not available.
UV 0 out of 12
Pollen 6.00 out of 12
Air Quality Not available.
Flu Activity Not available.
METAR KTEX 310335Z AUTO 13004KT 10SM BKN110 18/00 A3057 RMK AO2 T01790001

More Conditions Fewer Conditions

10-Day Weather Forecast

×

Almanac

Astronomy

Jul. 30, 2015 Rise Set
Actual Time
Civil Twilight
Nautical Twilight
Astronomical Twilight
Moon
Length of Visible Light
Length of Day
Tomorrow will be .
, % of the Moon is Illuminated

Today's Extremes

State Highs State Lows

Community

WunderPhotos

Upload Photos

1,842,598 photos uploaded!

WunderBlogs® & News

Nearby

Air Quality

  Air Quality AQ Index Pollutant
Not available.

Snow Depth

Station Depth Elevation

Earthquake Activity

City Distance Mag. Time & Date
Minimum magnitude displayed is 2.5.

Coastal Water Temperatures

Place Temperature

Stations

Nearby Weather Stations

Station Location Temp. Windchill Dew Point Humidity Wind Precip. Elev Updated Type